Stone, Idaho
Current Conditions -  °F | °C
As of 6:35 AM on Saturday 25 Oct 2014 (Local Time) from KBMC Reporting Station
Clear Clear  
Wind Chill: 46°   Ceiling: Unl
Heat Index: 46°   Visibility: 10mi
Dew Point: 33°   Wind: 3mph
Humidity: 60%   Direction: 60°ENE
Pressure: 30.08"   Gusts: NA
Location:  42.04°N, 112.71°W
Report Text: KBMC 251235Z AUTO 06003KT 10SM CLR 08/00 A3008 RMK AO1 T00780004
Loading
Personal Weather Stations






























Interactive Weather Map
Tropical Storm Tracking
New forecast layout! Learn more

10-Day Weather Forecast

Advertisements
Track Severe Weather on mobile